sensor_id;sensor_type;location;lat;lon;timestamp;temperature;humidity
6903;DHT22;20232;49.408;8.702;2022-12-18T06:53:03;-4.50;99.90
6903;DHT22;20232;49.408;8.702;2022-12-18T06:55:28;-7.20;99.90
6903;DHT22;20232;49.408;8.702;2022-12-18T06:57:54;-7.40;99.90
6903;DHT22;20232;49.408;8.702;2022-12-18T07:00:20;-7.50;99.90
6903;DHT22;20232;49.408;8.702;2022-12-18T07:07:37;-7.60;99.90
6903;DHT22;20232;49.408;8.702;2022-12-18T07:10:03;-7.70;99.90
6903;DHT22;20232;49.408;8.702;2022-12-18T07:12:29;-7.80;99.90
6903;DHT22;20232;49.408;8.702;2022-12-18T07:14:54;-7.80;99.90
6903;DHT22;20232;49.408;8.702;2022-12-18T07:17:20;-7.80;99.90
6903;DHT22;20232;49.408;8.702;2022-12-18T07:19:45;-7.80;99.90
6903;DHT22;20232;49.408;8.702;2022-12-18T07:22:11;-7.90;99.90
6903;DHT22;20232;49.408;8.702;2022-12-18T07:24:36;-7.90;99.90
6903;DHT22;20232;49.408;8.702;2022-12-18T07:27:02;-7.80;99.90
6903;DHT22;20232;49.408;8.702;2022-12-18T07:29:28;-7.80;99.90
6903;DHT22;20232;49.408;8.702;2022-12-18T07:31:53;-7.80;99.90
6903;DHT22;20232;49.408;8.702;2022-12-18T07:34:19;-7.80;99.90
6903;DHT22;20232;49.408;8.702;2022-12-18T07:36:44;-7.80;99.90
6903;DHT22;20232;49.408;8.702;2022-12-18T07:39:13;-7.70;99.90
6903;DHT22;20232;49.408;8.702;2022-12-18T07:41:39;-7.80;99.90
6903;DHT22;20232;49.408;8.702;2022-12-18T07:44:09;-7.80;99.90
6903;DHT22;20232;49.408;8.702;2022-12-18T07:46:35;-7.70;99.90
6903;DHT22;20232;49.408;8.702;2022-12-18T07:49:01;-7.80;99.90
6903;DHT22;20232;49.408;8.702;2022-12-18T07:51:26;-7.70;99.90
6903;DHT22;20232;49.408;8.702;2022-12-18T07:53:52;-7.70;99.90
6903;DHT22;20232;49.408;8.702;2022-12-18T07:56:18;-7.30;99.90
6903;DHT22;20232;49.408;8.702;2022-12-18T08:03:40;-6.60;99.90
6903;DHT22;20232;49.408;8.702;2022-12-18T08:08:33;-5.10;99.90
6903;DHT22;20232;49.408;8.702;2022-12-18T08:10:59;-4.80;99.90
6903;DHT22;20232;49.408;8.702;2022-12-18T08:13:25;-4.70;99.90
6903;DHT22;20232;49.408;8.702;2022-12-18T08:16:00;-4.70;99.90
6903;DHT22;20232;49.408;8.702;2022-12-18T08:18:26;-4.70;99.90
6903;DHT22;20232;49.408;8.702;2022-12-18T08:20:51;-4.70;99.90
6903;DHT22;20232;49.408;8.702;2022-12-18T08:23:17;-4.70;99.90
6903;DHT22;20232;49.408;8.702;2022-12-18T08:25:42;-4.70;99.90
6903;DHT22;20232;49.408;8.702;2022-12-18T08:28:09;-4.60;99.90
6903;DHT22;20232;49.408;8.702;2022-12-18T08:30:35;-4.60;99.90
6903;DHT22;20232;49.408;8.702;2022-12-18T08:33:01;-4.60;99.90
6903;DHT22;20232;49.408;8.702;2022-12-18T08:35:26;-4.60;99.90
6903;DHT22;20232;49.408;8.702;2022-12-18T08:37:52;-4.50;99.90
6903;DHT22;20232;49.408;8.702;2022-12-18T08:40:17;-4.50;99.90
6903;DHT22;20232;49.408;8.702;2022-12-18T08:42:43;-4.50;99.90
6903;DHT22;20232;49.408;8.702;2022-12-18T08:45:27;-4.40;99.90
6903;DHT22;20232;49.408;8.702;2022-12-18T08:47:53;-4.40;99.90
6903;DHT22;20232;49.408;8.702;2022-12-18T08:50:19;-4.50;99.90
6903;DHT22;20232;49.408;8.702;2022-12-18T08:52:45;-4.40;99.90
6903;DHT22;20232;49.408;8.702;2022-12-18T08:55:11;-4.10;99.90
6903;DHT22;20232;49.408;8.702;2022-12-18T08:57:36;-4.00;99.90
6903;DHT22;20232;49.408;8.702;2022-12-18T09:00:03;-3.80;99.90
6903;DHT22;20232;49.408;8.702;2022-12-18T09:02:29;-4.00;99.90
6903;DHT22;20232;49.408;8.702;2022-12-18T09:04:54;-4.10;99.90
6903;DHT22;20232;49.408;8.702;2022-12-18T09:07:20;-4.20;99.90
6903;DHT22;20232;49.408;8.702;2022-12-18T09:09:45;-4.30;99.90
6903;DHT22;20232;49.408;8.702;2022-12-18T09:12:11;-4.30;99.90
6903;DHT22;20232;49.408;8.702;2022-12-18T09:14:36;-4.30;99.90
6903;DHT22;20232;49.408;8.702;2022-12-18T09:17:02;-4.30;99.90
6903;DHT22;20232;49.408;8.702;2022-12-18T09:19:27;-4.30;99.90
6903;DHT22;20232;49.408;8.702;2022-12-18T09:21:53;-4.20;99.90
6903;DHT22;20232;49.408;8.702;2022-12-18T09:24:18;-4.20;99.90
6903;DHT22;20232;49.408;8.702;2022-12-18T09:26:44;-4.10;99.90
6903;DHT22;20232;49.408;8.702;2022-12-18T09:29:10;-4.10;99.90
6903;DHT22;20232;49.408;8.702;2022-12-18T09:31:36;-4.10;99.90
6903;DHT22;20232;49.408;8.702;2022-12-18T09:34:02;-4.10;99.90
6903;DHT22;20232;49.408;8.702;2022-12-18T09:36:30;-4.00;99.90
6903;DHT22;20232;49.408;8.702;2022-12-18T09:38:56;-3.90;99.90
6903;DHT22;20232;49.408;8.702;2022-12-18T09:49:40;-3.70;99.90
6903;DHT22;20232;49.408;8.702;2022-12-18T09:55:13;-3.70;99.90
6903;DHT22;20232;49.408;8.702;2022-12-18T09:57:49;-3.70;99.90
6903;DHT22;20232;49.408;8.702;2022-12-18T10:00:19;-3.70;99.90
6903;DHT22;20232;49.408;8.702;2022-12-18T10:02:45;-3.70;99.90
6903;DHT22;20232;49.408;8.702;2022-12-18T10:05:17;-3.60;99.90
6903;DHT22;20232;49.408;8.702;2022-12-18T10:07:55;-3.60;99.90
6903;DHT22;20232;49.408;8.702;2022-12-18T10:21:49;-3.30;99.90
6903;DHT22;20232;49.408;8.702;2022-12-18T10:24:48;-3.30;99.90
6903;DHT22;20232;49.408;8.702;2022-12-18T10:27:23;-3.20;99.90
6903;DHT22;20232;49.408;8.702;2022-12-18T10:29:49;-3.10;99.90
6903;DHT22;20232;49.408;8.702;2022-12-18T10:32:21;-3.00;99.90
6903;DHT22;20232;49.408;8.702;2022-12-18T10:34:49;-2.90;99.90
6903;DHT22;20232;49.408;8.702;2022-12-18T10:37:20;-2.90;99.90
6903;DHT22;20232;49.408;8.702;2022-12-18T10:40:04;-2.80;99.90
6903;DHT22;20232;49.408;8.702;2022-12-18T10:42:31;-2.80;99.90
6903;DHT22;20232;49.408;8.702;2022-12-18T10:45:16;-2.70;99.90
6903;DHT22;20232;49.408;8.702;2022-12-18T10:47:48;-2.60;99.90
6903;DHT22;20232;49.408;8.702;2022-12-18T10:50:28;-2.60;99.90
6903;DHT22;20232;49.408;8.702;2022-12-18T10:52:56;-2.50;99.90
6903;DHT22;20232;49.408;8.702;2022-12-18T10:55:22;-2.40;99.90
6903;DHT22;20232;49.408;8.702;2022-12-18T10:57:49;-2.30;99.90
6903;DHT22;20232;49.408;8.702;2022-12-18T11:00:29;-2.20;99.90
6903;DHT22;20232;49.408;8.702;2022-12-18T11:02:56;-2.10;99.90
6903;DHT22;20232;49.408;8.702;2022-12-18T11:05:26;-2.00;99.90
6903;DHT22;20232;49.408;8.702;2022-12-18T11:07:52;-1.90;99.90
6903;DHT22;20232;49.408;8.702;2022-12-18T11:10:25;-1.90;99.90
6903;DHT22;20232;49.408;8.702;2022-12-18T11:12:52;-1.90;99.90
6903;DHT22;20232;49.408;8.702;2022-12-18T11:15:21;-1.70;99.90
6903;DHT22;20232;49.408;8.702;2022-12-18T11:17:50;-1.60;99.90
6903;DHT22;20232;49.408;8.702;2022-12-18T11:23:04;-1.60;99.90
6903;DHT22;20232;49.408;8.702;2022-12-18T11:25:32;-1.60;99.90
6903;DHT22;20232;49.408;8.702;2022-12-18T11:28:01;-1.60;99.90
6903;DHT22;20232;49.408;8.702;2022-12-18T11:30:33;-1.80;99.90
6903;DHT22;20232;49.408;8.702;2022-12-18T11:35:58;-1.80;99.90
6903;DHT22;20232;49.408;8.702;2022-12-18T11:38:42;-1.80;99.90
6903;DHT22;20232;49.408;8.702;2022-12-18T11:41:34;-1.70;99.90
6903;DHT22;20232;49.408;8.702;2022-12-18T11:44:26;-1.60;99.90
6903;DHT22;20232;49.408;8.702;2022-12-18T11:47:00;-1.50;99.90
6903;DHT22;20232;49.408;8.702;2022-12-18T11:49:30;-1.40;99.90
6903;DHT22;20232;49.408;8.702;2022-12-18T11:52:07;-1.40;99.90
6903;DHT22;20232;49.408;8.702;2022-12-18T11:54:34;-1.50;99.90
6903;DHT22;20232;49.408;8.702;2022-12-18T12:00:18;-1.40;99.90
6903;DHT22;20232;49.408;8.702;2022-12-18T12:06:15;-1.50;99.90
6903;DHT22;20232;49.408;8.702;2022-12-18T12:17:21;-1.00;99.90
6903;DHT22;20232;49.408;8.702;2022-12-18T12:28:09;-1.10;99.90
6903;DHT22;20232;49.408;8.702;2022-12-18T12:30:52;-1.00;99.90
6903;DHT22;20232;49.408;8.702;2022-12-18T12:33:31;-0.90;99.90
6903;DHT22;20232;49.408;8.702;2022-12-18T12:36:28;-0.90;99.90
6903;DHT22;20232;49.408;8.702;2022-12-18T12:39:01;-0.90;99.90
6903;DHT22;20232;49.408;8.702;2022-12-18T12:41:31;-0.80;99.90
6903;DHT22;20232;49.408;8.702;2022-12-18T12:44:22;-0.70;99.90
6903;DHT22;20232;49.408;8.702;2022-12-18T12:46:50;-0.70;99.90
6903;DHT22;20232;49.408;8.702;2022-12-18T12:49:19;-0.80;99.90
6903;DHT22;20232;49.408;8.702;2022-12-18T12:52:34;-0.90;99.90
6903;DHT22;20232;49.408;8.702;2022-12-18T12:55:03;-1.20;99.90
6903;DHT22;20232;49.408;8.702;2022-12-18T12:57:34;-1.10;99.90
6903;DHT22;20232;49.408;8.702;2022-12-18T13:08:21;-1.10;99.90
6903;DHT22;20232;49.408;8.702;2022-12-18T13:10:47;-1.10;99.90
6903;DHT22;20232;49.408;8.702;2022-12-18T13:13:14;-1.10;99.90
6903;DHT22;20232;49.408;8.702;2022-12-18T13:15:46;-1.10;99.90
6903;DHT22;20232;49.408;8.702;2022-12-18T13:34:18;-0.80;99.90
6903;DHT22;20232;49.408;8.702;2022-12-18T13:36:44;-0.80;99.90
6903;DHT22;20232;49.408;8.702;2022-12-18T13:41:38;-0.90;99.90
6903;DHT22;20232;49.408;8.702;2022-12-18T13:44:13;-0.90;99.90
6903;DHT22;20232;49.408;8.702;2022-12-18T13:46:48;-0.90;99.90
6903;DHT22;20232;49.408;8.702;2022-12-18T13:49:40;-0.90;99.90
6903;DHT22;20232;49.408;8.702;2022-12-18T13:52:35;-0.90;99.90
6903;DHT22;20232;49.408;8.702;2022-12-18T13:55:03;-0.90;99.90
6903;DHT22;20232;49.408;8.702;2022-12-18T13:57:31;-0.90;99.90
6903;DHT22;20232;49.408;8.702;2022-12-18T13:59:58;-1.00;99.90
6903;DHT22;20232;49.408;8.702;2022-12-18T14:02:26;-1.00;99.90
6903;DHT22;20232;49.408;8.702;2022-12-18T14:04:52;-1.00;99.90
6903;DHT22;20232;49.408;8.702;2022-12-18T14:07:21;-0.90;99.90
6903;DHT22;20232;49.408;8.702;2022-12-18T14:09:57;-0.90;99.90
6903;DHT22;20232;49.408;8.702;2022-12-18T14:12:29;-0.90;99.90
6903;DHT22;20232;49.408;8.702;2022-12-18T14:15:41;-0.80;99.90
6903;DHT22;20232;49.408;8.702;2022-12-18T14:21:06;-0.80;99.90
6903;DHT22;20232;49.408;8.702;2022-12-18T14:23:41;-0.90;99.90
6903;DHT22;20232;49.408;8.702;2022-12-18T14:26:25;-0.90;99.90
6903;DHT22;20232;49.408;8.702;2022-12-18T14:28:53;-0.80;99.90
6903;DHT22;20232;49.408;8.702;2022-12-18T14:31:30;-0.80;99.90
6903;DHT22;20232;49.408;8.702;2022-12-18T14:33:56;-0.80;99.90
6903;DHT22;20232;49.408;8.702;2022-12-18T14:36:24;-0.70;99.90
6903;DHT22;20232;49.408;8.702;2022-12-18T14:38:52;-0.70;99.90
6903;DHT22;20232;49.408;8.702;2022-12-18T14:41:20;-0.80;99.90
6903;DHT22;20232;49.408;8.702;2022-12-18T14:43:53;-0.80;99.90
6903;DHT22;20232;49.408;8.702;2022-12-18T14:48:57;-0.80;99.90
6903;DHT22;20232;49.408;8.702;2022-12-18T14:51:24;-0.80;99.90
6903;DHT22;20232;49.408;8.702;2022-12-18T14:54:05;-0.80;99.90
6903;DHT22;20232;49.408;8.702;2022-12-18T14:56:45;-0.90;99.90
6903;DHT22;20232;49.408;8.702;2022-12-18T14:59:22;-0.90;99.90
6903;DHT22;20232;49.408;8.702;2022-12-18T15:01:57;-0.90;99.90
6903;DHT22;20232;49.408;8.702;2022-12-18T15:04:33;-0.90;99.90
6903;DHT22;20232;49.408;8.702;2022-12-18T15:07:27;-1.00;99.90
6903;DHT22;20232;49.408;8.702;2022-12-18T15:10:19;-1.00;99.90
6903;DHT22;20232;49.408;8.702;2022-12-18T15:12:46;-1.00;99.90
6903;DHT22;20232;49.408;8.702;2022-12-18T15:20:50;-1.10;99.90
6903;DHT22;20232;49.408;8.702;2022-12-18T15:26:07;-1.10;99.90
6903;DHT22;20232;49.408;8.702;2022-12-18T15:28:48;-1.20;99.90
6903;DHT22;20232;49.408;8.702;2022-12-18T15:36:18;-1.20;99.90
6903;DHT22;20232;49.408;8.702;2022-12-18T15:38:48;-1.20;99.90
6903;DHT22;20232;49.408;8.702;2022-12-18T15:41:16;-1.20;99.90
6903;DHT22;20232;49.408;8.702;2022-12-18T15:43:42;-1.20;99.90
6903;DHT22;20232;49.408;8.702;2022-12-18T15:46:13;-1.20;99.90
6903;DHT22;20232;49.408;8.702;2022-12-18T15:48:41;-1.20;99.90
6903;DHT22;20232;49.408;8.702;2022-12-18T15:51:18;-1.20;99.90
6903;DHT22;20232;49.408;8.702;2022-12-18T15:53:44;-1.20;99.90
6903;DHT22;20232;49.408;8.702;2022-12-18T15:56:11;-1.20;99.90
6903;DHT22;20232;49.408;8.702;2022-12-18T15:58:56;-1.20;99.90
6903;DHT22;20232;49.408;8.702;2022-12-18T16:01:23;-1.20;99.90
6903;DHT22;20232;49.408;8.702;2022-12-18T16:03:49;-1.20;99.90
6903;DHT22;20232;49.408;8.702;2022-12-18T16:06:18;-1.20;99.90
6903;DHT22;20232;49.408;8.702;2022-12-18T16:08:44;-1.10;99.90
6903;DHT22;20232;49.408;8.702;2022-12-18T16:11:31;-1.10;99.90
6903;DHT22;20232;49.408;8.702;2022-12-18T16:14:22;-1.10;99.90
6903;DHT22;20232;49.408;8.702;2022-12-18T16:16:56;-1.10;99.90
6903;DHT22;20232;49.408;8.702;2022-12-18T16:19:23;-1.10;99.90
6903;DHT22;20232;49.408;8.702;2022-12-18T16:21:51;-1.10;99.90
6903;DHT22;20232;49.408;8.702;2022-12-18T16:24:21;-1.10;99.90
6903;DHT22;20232;49.408;8.702;2022-12-18T16:26:47;-1.00;99.90
6903;DHT22;20232;49.408;8.702;2022-12-18T16:29:13;-1.00;99.90
6903;DHT22;20232;49.408;8.702;2022-12-18T16:31:39;-1.00;99.90
6903;DHT22;20232;49.408;8.702;2022-12-18T16:34:22;-1.00;99.90
6903;DHT22;20232;49.408;8.702;2022-12-18T16:36:49;-1.00;99.90
6903;DHT22;20232;49.408;8.702;2022-12-18T16:39:16;-1.00;99.90
6903;DHT22;20232;49.408;8.702;2022-12-18T16:41:41;-1.00;99.90
6903;DHT22;20232;49.408;8.702;2022-12-18T16:44:07;-1.00;99.90
6903;DHT22;20232;49.408;8.702;2022-12-18T16:46:33;-1.00;99.90
6903;DHT22;20232;49.408;8.702;2022-12-18T16:48:59;-1.00;99.90
6903;DHT22;20232;49.408;8.702;2022-12-18T16:51:26;-1.00;99.90
6903;DHT22;20232;49.408;8.702;2022-12-18T16:53:53;-1.00;99.90
6903;DHT22;20232;49.408;8.702;2022-12-18T16:56:19;-1.00;99.90
6903;DHT22;20232;49.408;8.702;2022-12-18T16:58:55;-1.00;99.90
6903;DHT22;20232;49.408;8.702;2022-12-18T17:01:22;-1.00;99.90
6903;DHT22;20232;49.408;8.702;2022-12-18T17:03:55;-1.00;99.90
6903;DHT22;20232;49.408;8.702;2022-12-18T17:06:22;-1.00;99.90
6903;DHT22;20232;49.408;8.702;2022-12-18T17:08:54;-1.00;99.90
6903;DHT22;20232;49.408;8.702;2022-12-18T17:11:20;-1.00;99.90
6903;DHT22;20232;49.408;8.702;2022-12-18T17:13:45;-1.00;99.90
6903;DHT22;20232;49.408;8.702;2022-12-18T17:16:11;-1.00;99.90
6903;DHT22;20232;49.408;8.702;2022-12-18T17:18:36;-0.90;99.90
6903;DHT22;20232;49.408;8.702;2022-12-18T17:21:05;-0.90;99.90
6903;DHT22;20232;49.408;8.702;2022-12-18T17:23:33;-0.90;99.90
6903;DHT22;20232;49.408;8.702;2022-12-18T17:25:59;-0.90;99.90
6903;DHT22;20232;49.408;8.702;2022-12-18T17:28:25;-0.90;99.90
6903;DHT22;20232;49.408;8.702;2022-12-18T17:30:52;-0.90;99.90
6903;DHT22;20232;49.408;8.702;2022-12-18T17:33:18;-0.90;99.90
6903;DHT22;20232;49.408;8.702;2022-12-18T17:35:44;-0.80;99.90
6903;DHT22;20232;49.408;8.702;2022-12-18T17:38:12;-0.80;99.90
6903;DHT22;20232;49.408;8.702;2022-12-18T17:40:38;-0.80;99.90
6903;DHT22;20232;49.408;8.702;2022-12-18T17:43:08;-0.80;99.90
6903;DHT22;20232;49.408;8.702;2022-12-18T17:45:37;-0.90;99.90
6903;DHT22;20232;49.408;8.702;2022-12-18T17:48:04;-0.90;99.90
6903;DHT22;20232;49.408;8.702;2022-12-18T17:50:32;-0.90;99.90
6903;DHT22;20232;49.408;8.702;2022-12-18T17:52:58;-0.90;99.90
6903;DHT22;20232;49.408;8.702;2022-12-18T17:55:24;-0.90;99.90
6903;DHT22;20232;49.408;8.702;2022-12-18T17:57:50;-0.90;99.90
6903;DHT22;20232;49.408;8.702;2022-12-18T18:00:15;-0.90;99.90
6903;DHT22;20232;49.408;8.702;2022-12-18T18:02:41;-0.90;99.90
6903;DHT22;20232;49.408;8.702;2022-12-18T18:05:07;-1.00;99.90
6903;DHT22;20232;49.408;8.702;2022-12-18T18:07:33;-1.00;99.90
6903;DHT22;20232;49.408;8.702;2022-12-18T18:09:59;-0.90;99.90
6903;DHT22;20232;49.408;8.702;2022-12-18T18:12:24;-0.90;99.90
6903;DHT22;20232;49.408;8.702;2022-12-18T18:15:08;-0.90;99.90
6903;DHT22;20232;49.408;8.702;2022-12-18T18:17:34;-0.90;99.90
6903;DHT22;20232;49.408;8.702;2022-12-18T18:20:00;-0.90;99.90
6903;DHT22;20232;49.408;8.702;2022-12-18T18:22:25;-0.90;99.90
6903;DHT22;20232;49.408;8.702;2022-12-18T18:24:51;-0.90;99.90
6903;DHT22;20232;49.408;8.702;2022-12-18T18:27:16;-0.90;99.90
6903;DHT22;20232;49.408;8.702;2022-12-18T18:29:42;-0.90;99.90
6903;DHT22;20232;49.408;8.702;2022-12-18T18:32:08;-0.90;99.90
6903;DHT22;20232;49.408;8.702;2022-12-18T18:34:33;-0.90;99.90
6903;DHT22;20232;49.408;8.702;2022-12-18T18:37:00;-0.90;99.90
6903;DHT22;20232;49.408;8.702;2022-12-18T18:39:26;-0.80;99.90
6903;DHT22;20232;49.408;8.702;2022-12-18T18:41:52;-0.80;99.90
6903;DHT22;20232;49.408;8.702;2022-12-18T18:44:18;-0.80;99.90
6903;DHT22;20232;49.408;8.702;2022-12-18T18:46:47;-0.80;99.90
6903;DHT22;20232;49.408;8.702;2022-12-18T18:49:13;-0.70;99.90
6903;DHT22;20232;49.408;8.702;2022-12-18T18:51:40;-0.70;99.90
6903;DHT22;20232;49.408;8.702;2022-12-18T18:54:06;-0.70;99.90
6903;DHT22;20232;49.408;8.702;2022-12-18T18:56:32;-0.70;99.90
6903;DHT22;20232;49.408;8.702;2022-12-18T18:58:58;-0.80;99.90
6903;DHT22;20232;49.408;8.702;2022-12-18T19:01:24;-0.70;99.90
6903;DHT22;20232;49.408;8.702;2022-12-18T19:03:51;-0.70;99.90
6903;DHT22;20232;49.408;8.702;2022-12-18T19:06:23;-0.70;99.90
6903;DHT22;20232;49.408;8.702;2022-12-18T19:08:50;-0.80;99.90
6903;DHT22;20232;49.408;8.702;2022-12-18T19:11:16;-0.80;99.90
6903;DHT22;20232;49.408;8.702;2022-12-18T19:14:03;-0.80;99.90
6903;DHT22;20232;49.408;8.702;2022-12-18T19:16:29;-0.80;99.90
6903;DHT22;20232;49.408;8.702;2022-12-18T19:18:55;-0.80;99.90
6903;DHT22;20232;49.408;8.702;2022-12-18T19:21:22;-0.80;99.90
6903;DHT22;20232;49.408;8.702;2022-12-18T19:23:48;-0.80;99.90
6903;DHT22;20232;49.408;8.702;2022-12-18T19:26:14;-0.80;99.90
6903;DHT22;20232;49.408;8.702;2022-12-18T19:28:40;-0.70;99.90
6903;DHT22;20232;49.408;8.702;2022-12-18T19:31:07;-0.80;99.90
6903;DHT22;20232;49.408;8.702;2022-12-18T19:33:36;-0.80;99.90
6903;DHT22;20232;49.408;8.702;2022-12-18T19:36:29;-0.70;99.90
6903;DHT22;20232;49.408;8.702;2022-12-18T19:38:57;-0.70;99.90
6903;DHT22;20232;49.408;8.702;2022-12-18T19:41:24;-0.70;99.90
6903;DHT22;20232;49.408;8.702;2022-12-18T19:43:50;-0.70;99.90
6903;DHT22;20232;49.408;8.702;2022-12-18T19:46:18;-0.70;99.90
6903;DHT22;20232;49.408;8.702;2022-12-18T19:48:45;-0.70;99.90
6903;DHT22;20232;49.408;8.702;2022-12-18T19:51:17;-0.70;99.90
6903;DHT22;20232;49.408;8.702;2022-12-18T19:53:44;-0.70;99.90
6903;DHT22;20232;49.408;8.702;2022-12-18T19:56:12;-0.70;99.90
6903;DHT22;20232;49.408;8.702;2022-12-18T19:58:38;-0.70;99.90
6903;DHT22;20232;49.408;8.702;2022-12-18T20:01:05;-0.60;99.90
6903;DHT22;20232;49.408;8.702;2022-12-18T20:03:30;-0.60;99.90
6903;DHT22;20232;49.408;8.702;2022-12-18T20:08:44;-0.60;99.90
6903;DHT22;20232;49.408;8.702;2022-12-18T20:11:10;-0.60;99.90
6903;DHT22;20232;49.408;8.702;2022-12-18T20:13:36;-0.70;99.90
6903;DHT22;20232;49.408;8.702;2022-12-18T20:16:02;-0.60;99.90
6903;DHT22;20232;49.408;8.702;2022-12-18T20:18:28;-0.70;99.90
6903;DHT22;20232;49.408;8.702;2022-12-18T20:20:53;-0.60;99.90
6903;DHT22;20232;49.408;8.702;2022-12-18T20:23:19;-0.60;99.90
6903;DHT22;20232;49.408;8.702;2022-12-18T20:25:46;-0.60;99.90
6903;DHT22;20232;49.408;8.702;2022-12-18T20:28:12;-0.70;99.90
6903;DHT22;20232;49.408;8.702;2022-12-18T20:30:38;-0.70;99.90
6903;DHT22;20232;49.408;8.702;2022-12-18T20:33:03;-0.60;99.90
6903;DHT22;20232;49.408;8.702;2022-12-18T20:35:31;-0.70;99.90
6903;DHT22;20232;49.408;8.702;2022-12-18T20:37:57;-0.70;99.90
6903;DHT22;20232;49.408;8.702;2022-12-18T20:40:23;-0.60;99.90
6903;DHT22;20232;49.408;8.702;2022-12-18T20:42:49;-0.60;99.90
6903;DHT22;20232;49.408;8.702;2022-12-18T20:45:14;-0.50;99.90
6903;DHT22;20232;49.408;8.702;2022-12-18T20:47:40;-0.50;99.90
6903;DHT22;20232;49.408;8.702;2022-12-18T20:50:06;-0.50;99.90
6903;DHT22;20232;49.408;8.702;2022-12-18T20:52:32;-0.50;99.90
6903;DHT22;20232;49.408;8.702;2022-12-18T20:54:57;-0.60;99.90
6903;DHT22;20232;49.408;8.702;2022-12-18T20:57:23;-0.60;99.90
6903;DHT22;20232;49.408;8.702;2022-12-18T20:59:49;-0.60;99.90
6903;DHT22;20232;49.408;8.702;2022-12-18T21:02:15;-0.60;99.90
6903;DHT22;20232;49.408;8.702;2022-12-18T21:04:40;-0.60;99.90
6903;DHT22;20232;49.408;8.702;2022-12-18T21:07:06;-0.70;99.90
6903;DHT22;20232;49.408;8.702;2022-12-18T21:09:32;-0.70;99.90
6903;DHT22;20232;49.408;8.702;2022-12-18T21:11:57;-0.60;99.90
6903;DHT22;20232;49.408;8.702;2022-12-18T21:14:44;-0.60;99.90
6903;DHT22;20232;49.408;8.702;2022-12-18T21:17:10;-0.60;99.90
6903;DHT22;20232;49.408;8.702;2022-12-18T21:19:36;-0.50;99.90
6903;DHT22;20232;49.408;8.702;2022-12-18T21:22:02;-0.50;99.90
6903;DHT22;20232;49.408;8.702;2022-12-18T21:24:31;-0.50;99.90
6903;DHT22;20232;49.408;8.702;2022-12-18T21:26:58;-0.50;99.90
6903;DHT22;20232;49.408;8.702;2022-12-18T21:29:25;-0.50;99.90
6903;DHT22;20232;49.408;8.702;2022-12-18T21:31:51;-0.40;99.90
6903;DHT22;20232;49.408;8.702;2022-12-18T21:34:23;-0.30;99.90
6903;DHT22;20232;49.408;8.702;2022-12-18T21:36:54;-0.30;99.90
6903;DHT22;20232;49.408;8.702;2022-12-18T21:39:20;-0.20;99.90
6903;DHT22;20232;49.408;8.702;2022-12-18T21:41:46;-0.20;99.90
6903;DHT22;20232;49.408;8.702;2022-12-18T21:44:30;-0.30;99.90
6903;DHT22;20232;49.408;8.702;2022-12-18T21:46:56;-0.30;99.90
6903;DHT22;20232;49.408;8.702;2022-12-18T21:49:22;-0.30;99.90
6903;DHT22;20232;49.408;8.702;2022-12-18T21:51:49;-0.30;99.90
6903;DHT22;20232;49.408;8.702;2022-12-18T21:54:16;-0.30;99.90
6903;DHT22;20232;49.408;8.702;2022-12-18T21:59:14;-0.20;99.90
6903;DHT22;20232;49.408;8.702;2022-12-18T22:01:40;-0.20;99.90
6903;DHT22;20232;49.408;8.702;2022-12-18T22:04:06;-0.20;99.90
6903;DHT22;20232;49.408;8.702;2022-12-18T22:06:32;-0.30;99.90
6903;DHT22;20232;49.408;8.702;2022-12-18T22:08:58;-0.40;99.90
6903;DHT22;20232;49.408;8.702;2022-12-18T22:11:24;-0.40;99.90
6903;DHT22;20232;49.408;8.702;2022-12-18T22:13:50;-0.40;99.90
6903;DHT22;20232;49.408;8.702;2022-12-18T22:16:16;-0.40;99.90
6903;DHT22;20232;49.408;8.702;2022-12-18T22:18:41;-0.40;99.90
6903;DHT22;20232;49.408;8.702;2022-12-18T22:21:18;-0.30;99.90
6903;DHT22;20232;49.408;8.702;2022-12-18T22:23:54;-0.30;99.90
6903;DHT22;20232;49.408;8.702;2022-12-18T22:26:21;-0.30;99.90
6903;DHT22;20232;49.408;8.702;2022-12-18T22:28:47;-0.20;99.90
6903;DHT22;20232;49.408;8.702;2022-12-18T22:31:31;-0.20;99.90
6903;DHT22;20232;49.408;8.702;2022-12-18T22:33:57;-0.20;99.90
6903;DHT22;20232;49.408;8.702;2022-12-18T22:36:23;-0.30;99.90
6903;DHT22;20232;49.408;8.702;2022-12-18T22:38:49;-0.20;99.90
6903;DHT22;20232;49.408;8.702;2022-12-18T22:41:14;-0.20;99.90
6903;DHT22;20232;49.408;8.702;2022-12-18T22:43:42;-0.20;99.90
6903;DHT22;20232;49.408;8.702;2022-12-18T22:46:15;-0.20;99.90
6903;DHT22;20232;49.408;8.702;2022-12-18T22:48:41;-0.30;99.90
6903;DHT22;20232;49.408;8.702;2022-12-18T22:51:13;-0.30;99.90
6903;DHT22;20232;49.408;8.702;2022-12-18T22:53:39;-0.30;99.90
6903;DHT22;20232;49.408;8.702;2022-12-18T22:56:05;-0.30;99.90
6903;DHT22;20232;49.408;8.702;2022-12-18T22:58:30;-0.20;99.90
6903;DHT22;20232;49.408;8.702;2022-12-18T23:00:56;-0.20;99.90
6903;DHT22;20232;49.408;8.702;2022-12-18T23:03:22;-0.20;99.90
6903;DHT22;20232;49.408;8.702;2022-12-18T23:05:47;-0.20;99.90
6903;DHT22;20232;49.408;8.702;2022-12-18T23:08:13;-0.20;99.90
6903;DHT22;20232;49.408;8.702;2022-12-18T23:10:39;-0.20;99.90
6903;DHT22;20232;49.408;8.702;2022-12-18T23:13:04;-0.20;99.90
6903;DHT22;20232;49.408;8.702;2022-12-18T23:15:30;-0.10;99.90
6903;DHT22;20232;49.408;8.702;2022-12-18T23:17:56;-0.10;99.90
6903;DHT22;20232;49.408;8.702;2022-12-18T23:20:23;-0.10;99.90
6903;DHT22;20232;49.408;8.702;2022-12-18T23:22:49;-0.10;99.90
6903;DHT22;20232;49.408;8.702;2022-12-18T23:25:14;-0.10;99.90
6903;DHT22;20232;49.408;8.702;2022-12-18T23:27:40;-0.10;99.90
6903;DHT22;20232;49.408;8.702;2022-12-18T23:30:06;-0.20;99.90
6903;DHT22;20232;49.408;8.702;2022-12-18T23:32:37;-0.10;99.90
6903;DHT22;20232;49.408;8.702;2022-12-18T23:35:03;-0.10;99.90
6903;DHT22;20232;49.408;8.702;2022-12-18T23:37:28;-0.10;99.90
6903;DHT22;20232;49.408;8.702;2022-12-18T23:39:54;-0.10;99.90
6903;DHT22;20232;49.408;8.702;2022-12-18T23:42:20;-0.10;99.90
6903;DHT22;20232;49.408;8.702;2022-12-18T23:44:45;-0.10;99.90
6903;DHT22;20232;49.408;8.702;2022-12-18T23:47:11;-0.10;99.90
6903;DHT22;20232;49.408;8.702;2022-12-18T23:49:36;-0.10;99.90
6903;DHT22;20232;49.408;8.702;2022-12-18T23:52:02;-0.10;99.90
6903;DHT22;20232;49.408;8.702;2022-12-18T23:54:28;-0.10;99.90
6903;DHT22;20232;49.408;8.702;2022-12-18T23:56:53;-0.10;99.90
6903;DHT22;20232;49.408;8.702;2022-12-18T23:59:19;-0.10;99.90
